Time;durP1;ratioP1;P1;durP2;ratioP2;P2;SDS_P1;SDS_P2;PMS_P1;PMS_P2;Temp;Humidity;BMP_temperature;BMP_pressure;BME280_temperature;BME280_humidity;BME280_pressure;Samples;Min_cycle;Max_cycle;Signal;HPM_P1;HPM_P2
2022/06/26 00:00:34;;;;;;;3.80;1.63;;;15.90;99.90;;;;;;5093368;28;20496;-67
2022/06/26 00:03:00;;;;;;;2.97;1.35;;;16.00;99.90;;;;;;5093367;28;20043;-67
2022/06/26 00:05:27;;;;;;;4.18;1.35;;;15.90;99.90;;;;;;5093526;28;20464;-67
2022/06/26 00:07:54;;;;;;;2.65;1.02;;;15.80;99.90;;;;;;5093317;28;20052;-67
2022/06/26 00:10:21;;;;;;;4.40;1.33;;;15.70;99.90;;;;;;5093179;28;20055;-67
2022/06/26 00:12:49;;;;;;;3.38;1.25;;;15.70;99.90;;;;;;5093318;28;20051;-67
2022/06/26 00:15:16;;;;;;;5.15;1.40;;;15.90;99.90;;;;;;5092897;28;20032;-67
2022/06/26 00:17:43;;;;;;;2.80;1.08;;;15.90;99.90;;;;;;5092794;28;20048;-67
2022/06/26 00:20:11;;;;;;;1.88;1.17;;;15.90;99.90;;;;;;5092615;28;20105;-67
2022/06/26 00:22:40;;;;;;;5.28;1.10;;;15.70;99.90;;;;;;5093134;28;20046;-67
2022/06/26 00:25:08;;;;;;;2.25;0.90;;;15.80;99.90;;;;;;5092813;28;20044;-67
2022/06/26 00:27:35;;;;;;;10.65;1.10;;;15.70;99.90;;;;;;5091693;28;20035;-67
2022/06/26 00:30:02;;;;;;;6.90;0.98;;;15.70;99.90;;;;;;5092902;28;20039;-67
2022/06/26 00:32:30;;;;;;;2.55;1.13;;;15.70;99.90;;;;;;5093143;28;20039;-67
2022/06/26 00:34:57;;;;;;;4.20;1.02;;;15.60;99.90;;;;;;5092717;28;20040;-67
2022/06/26 00:37:24;;;;;;;3.40;1.10;;;15.70;99.90;;;;;;5092833;28;20123;-67
2022/06/26 00:39:50;;;;;;;6.35;1.10;;;15.90;99.90;;;;;;5092723;28;20403;-67
2022/06/26 00:42:17;;;;;;;3.67;1.50;;;16.00;99.90;;;;;;5092641;28;20538;-67
2022/06/26 00:44:44;;;;;;;7.60;1.40;;;15.80;99.90;;;;;;5092656;28;20051;-67
2022/06/26 00:47:12;;;;;;;3.55;1.63;;;16.00;99.90;;;;;;5092682;28;20071;-67
2022/06/26 00:49:40;;;;;;;3.58;1.75;;;16.10;99.90;;;;;;5075020;28;20419;-67
2022/06/26 00:52:07;;;;;;;4.75;2.05;;;16.00;99.90;;;;;;5092932;28;20052;-67
2022/06/26 00:54:34;;;;;;;3.33;1.70;;;15.90;99.90;;;;;;5092889;28;20047;-67
2022/06/26 00:57:01;;;;;;;3.00;1.77;;;15.80;99.90;;;;;;5092742;28;20044;-67
2022/06/26 00:59:28;;;;;;;5.82;1.25;;;15.70;99.90;;;;;;5092327;28;20063;-67
2022/06/26 01:01:55;;;;;;;6.10;1.33;;;15.60;99.90;;;;;;5092651;28;20040;-67
2022/06/26 01:04:22;;;;;;;3.15;1.10;;;15.60;99.90;;;;;;5092752;28;20399;-67
2022/06/26 01:06:51;;;;;;;2.95;1.67;;;15.50;99.90;;;;;;5092890;28;20060;-67
2022/06/26 01:09:18;;;;;;;2.65;1.52;;;15.50;99.90;;;;;;5092674;28;20047;-67
2022/06/26 01:11:45;;;;;;;2.75;1.20;;;15.50;99.90;;;;;;5092433;28;20095;-67
2022/06/26 01:14:13;;;;;;;2.38;1.10;;;15.60;99.90;;;;;;5092519;28;20047;-67
2022/06/26 01:16:41;;;;;;;6.50;1.52;;;15.70;99.90;;;;;;5074819;28;20054;-67
2022/06/26 01:19:09;;;;;;;3.38;1.38;;;15.90;99.90;;;;;;5092601;28;20051;-67
2022/06/26 01:21:37;;;;;;;3.95;1.05;;;15.80;99.90;;;;;;5092460;28;20039;-67
2022/06/26 01:24:04;;;;;;;2.67;1.25;;;15.70;99.90;;;;;;5092369;28;20044;-67
2022/06/26 01:26:32;;;;;;;3.33;1.08;;;15.60;99.90;;;;;;5092127;28;20048;-67
2022/06/26 01:28:58;;;;;;;2.25;0.98;;;15.50;99.90;;;;;;5092140;28;20066;-67
2022/06/26 01:31:25;;;;;;;1.65;1.02;;;15.70;99.90;;;;;;5092372;28;20078;-67
2022/06/26 01:33:52;;;;;;;8.10;1.23;;;15.80;99.90;;;;;;5074246;28;20036;-67
2022/06/26 01:36:19;;;;;;;2.08;1.10;;;15.90;99.90;;;;;;5092175;28;20526;-67
2022/06/26 01:38:47;;;;;;;4.22;1.17;;;15.80;99.90;;;;;;5093134;28;20040;-67
2022/06/26 01:41:14;;;;;;;11.00;2.67;;;16.00;99.90;;;;;;5078260;28;20051;-67
2022/06/26 01:43:41;;;;;;;4.60;0.95;;;15.80;99.90;;;;;;5095955;28;20075;-67
2022/06/26 01:46:07;;;;;;;3.63;0.90;;;15.90;99.90;;;;;;5095948;28;20047;-67
2022/06/26 01:48:37;;;;;;;3.03;1.00;;;16.00;99.90;;;;;;5095970;28;20044;-67
2022/06/26 01:51:05;;;;;;;2.92;1.00;;;16.10;99.90;;;;;;5095718;28;20134;-67
2022/06/26 01:53:32;;;;;;;6.65;1.23;;;16.10;99.90;;;;;;5095811;28;20043;-67
2022/06/26 01:55:58;;;;;;;3.08;1.05;;;16.10;99.90;;;;;;5095689;28;20100;-67
2022/06/26 01:58:25;;;;;;;3.45;1.20;;;16.10;99.90;;;;;;5077484;28;20604;-66
2022/06/26 02:00:53;;;;;;;3.70;1.00;;;16.00;99.90;;;;;;5095675;28;20044;-66
2022/06/26 02:03:21;;;;;;;5.75;0.90;;;15.80;99.90;;;;;;5095677;28;20036;-66
2022/06/26 02:05:48;;;;;;;2.10;1.33;;;15.90;99.90;;;;;;5095539;28;20466;-66
2022/06/26 02:08:17;;;;;;;4.18;1.00;;;16.00;99.90;;;;;;5095503;28;20044;-66
2022/06/26 02:13:42;;;;;;;2.28;1.10;;;16.00;99.90;;;;;;5095491;28;20039;-65
2022/06/26 02:16:11;;;;;;;2.67;0.90;;;15.90;99.90;;;;;;5095453;28;20044;-66
2022/06/26 02:18:40;;;;;;;2.88;1.13;;;15.90;99.90;;;;;;5095312;28;20036;-66
2022/06/26 02:21:12;;;;;;;3.55;1.35;;;15.80;99.90;;;;;;5095284;28;20052;-66
2022/06/26 02:23:40;;;;;;;4.90;1.42;;;15.90;99.90;;;;;;5093321;28;20040;-66
2022/06/26 02:26:08;;;;;;;3.63;1.02;;;15.90;99.90;;;;;;5092057;28;20456;-66
2022/06/26 02:28:37;;;;;;;5.07;1.15;;;15.80;99.90;;;;;;5092992;28;20043;-66
2022/06/26 02:31:04;;;;;;;5.00;1.05;;;15.60;99.90;;;;;;5094201;28;20048;-66
2022/06/26 02:33:38;;;;;;;7.10;1.77;;;15.70;99.90;;;;;;5094882;28;20460;-66
2022/06/26 02:36:07;;;;;;;2.97;1.08;;;15.80;99.90;;;;;;5094570;28;20044;-65
2022/06/26 02:38:35;;;;;;;2.25;1.33;;;15.70;99.90;;;;;;5094605;28;20640;-65
2022/06/26 02:41:02;;;;;;;1.85;1.02;;;15.60;99.90;;;;;;5110494;28;20059;-66
2022/06/26 02:43:31;;;;;;;5.90;1.20;;;15.60;99.90;;;;;;5094791;28;20040;-66
2022/06/26 02:45:59;;;;;;;6.00;2.05;;;15.50;99.90;;;;;;5094324;28;20051;-66
2022/06/26 02:48:26;;;;;;;2.88;1.42;;;15.70;99.90;;;;;;5094627;28;20040;-66
2022/06/26 02:50:53;;;;;;;2.95;0.88;;;15.60;99.90;;;;;;5093758;28;20062;-66
2022/06/26 02:53:22;;;;;;;5.78;1.77;;;15.40;99.90;;;;;;5094669;28;20044;-65
2022/06/26 02:55:51;;;;;;;3.75;1.33;;;15.30;99.90;;;;;;5094650;28;20085;-65
2022/06/26 02:58:18;;;;;;;7.55;2.00;;;15.40;99.90;;;;;;5078616;28;20050;-65
2022/06/26 03:00:45;;;;;;;2.45;1.50;;;15.60;99.90;;;;;;5073709;28;20051;-65
2022/06/26 03:03:14;;;;;;;3.47;1.45;;;15.50;99.90;;;;;;5073090;28;20048;-65
2022/06/26 03:05:41;;;;;;;3.78;1.35;;;15.30;99.90;;;;;;5073237;28;20043;-65
2022/06/26 03:08:08;;;;;;;1.55;0.90;;;15.40;99.90;;;;;;5073957;28;20044;-65
2022/06/26 03:10:36;;;;;;;2.30;1.25;;;15.50;99.90;;;;;;5072589;28;20534;-66
2022/06/26 03:13:04;;;;;;;3.40;1.30;;;15.50;99.90;;;;;;5072336;28;20066;-65
2022/06/26 03:15:31;;;;;;;4.32;1.55;;;15.60;99.90;;;;;;5073770;28;20124;-65
2022/06/26 03:17:59;;;;;;;2.53;1.23;;;15.60;99.90;;;;;;5073606;28;20048;-66
2022/06/26 03:20:26;;;;;;;1.45;0.90;;;15.40;99.90;;;;;;5073542;28;20052;-66
2022/06/26 03:22:53;;;;;;;2.08;1.00;;;15.20;99.90;;;;;;5072960;28;20048;-66
2022/06/26 03:25:19;;;;;;;2.97;1.13;;;15.10;99.90;;;;;;5073601;28;20032;-66
2022/06/26 03:27:46;;;;;;;3.67;1.20;;;14.90;99.90;;;;;;5080078;28;20119;-66
2022/06/26 03:30:14;;;;;;;3.17;1.05;;;14.80;99.90;;;;;;5093939;28;20044;-66
2022/06/26 03:32:41;;;;;;;3.90;1.48;;;14.90;99.90;;;;;;5093996;28;20120;-66
2022/06/26 03:35:10;;;;;;;5.03;1.10;;;15.00;99.90;;;;;;5093129;28;20778;-66
2022/06/26 03:37:37;;;;;;;1.77;1.10;;;15.20;99.90;;;;;;5093739;28;20058;-66
2022/06/26 03:40:04;;;;;;;2.03;1.00;;;15.10;99.90;;;;;;5093517;28;20071;-66
2022/06/26 03:42:32;;;;;;;2.80;1.00;;;15.20;99.90;;;;;;5093269;28;20064;-66
2022/06/26 03:45:01;;;;;;;2.03;1.00;;;15.30;99.90;;;;;;5093311;28;20433;-66
2022/06/26 03:47:28;;;;;;;1.15;1.00;;;15.40;99.90;;;;;;5093303;28;20054;-66
2022/06/26 03:49:56;;;;;;;2.65;1.30;;;15.50;99.90;;;;;;5093326;28;20112;-66
2022/06/26 03:52:25;;;;;;;4.20;1.20;;;15.60;99.90;;;;;;5093190;28;20101;-66
2022/06/26 03:54:54;;;;;;;0.98;0.90;;;15.50;99.90;;;;;;5092320;28;20035;-67
2022/06/26 03:57:22;;;;;;;2.08;0.85;;;15.50;99.90;;;;;;5093120;28;20109;-66
2022/06/26 03:59:49;;;;;;;1.77;0.95;;;15.50;99.90;;;;;;5075223;28;20036;-66
2022/06/26 04:02:16;;;;;;;1.65;0.80;;;15.50;99.90;;;;;;5092958;28;20040;-66
2022/06/26 04:04:44;;;;;;;1.88;1.08;;;15.20;99.90;;;;;;5093248;28;20572;-66
2022/06/26 04:07:12;;;;;;;3.60;1.02;;;15.10;99.90;;;;;;5093425;28;20043;-66
2022/06/26 04:09:39;;;;;;;2.45;0.85;;;15.10;99.90;;;;;;5058980;28;20083;-66
2022/06/26 04:12:06;;;;;;;2.55;1.20;;;15.20;99.90;;;;;;5092999;28;20064;-66
2022/06/26 04:14:35;;;;;;;2.03;1.15;;;15.40;99.90;;;;;;5093319;28;20067;-66
2022/06/26 04:17:02;;;;;;;2.90;1.27;;;15.50;99.90;;;;;;5093324;28;20043;-66
2022/06/26 04:19:29;;;;;;;5.00;1.42;;;15.40;99.90;;;;;;5075382;28;20043;-66
2022/06/26 04:21:59;;;;;;;2.85;1.25;;;15.40;99.90;;;;;;5092564;28;20036;-66
2022/06/26 04:24:29;;;;;;;6.05;1.20;;;15.40;99.90;;;;;;5092751;28;20047;-66
2022/06/26 04:26:56;;;;;;;3.85;1.70;;;15.30;99.90;;;;;;5075454;28;20081;-66
2022/06/26 04:29:24;;;;;;;2.28;1.30;;;15.40;99.90;;;;;;5074752;28;20028;-66
2022/06/26 04:31:51;;;;;;;4.05;2.10;;;15.40;99.90;;;;;;5074678;28;20216;-66
2022/06/26 04:34:19;;;;;;;3.08;1.63;;;15.50;99.90;;;;;;5092950;28;20040;-66
2022/06/26 04:36:47;;;;;;;6.18;1.30;;;15.50;99.90;;;;;;5074790;28;20455;-65
2022/06/26 04:39:15;;;;;;;2.35;1.20;;;15.60;99.90;;;;;;5092915;28;20077;-65
2022/06/26 04:41:49;;;;;;;2.17;1.20;;;15.60;99.90;;;;;;5075188;28;20052;-65
2022/06/26 04:44:17;;;;;;;2.17;1.67;;;15.50;99.90;;;;;;5092435;28;20040;-65
2022/06/26 04:46:46;;;;;;;3.90;1.10;;;15.50;99.90;;;;;;5092836;28;20502;-65
2022/06/26 04:49:16;;;;;;;1.40;1.23;;;15.50;99.90;;;;;;5092838;28;20048;-65
2022/06/26 04:51:43;;;;;;;2.28;1.50;;;15.50;99.90;;;;;;5092535;28;20052;-65
2022/06/26 04:54:10;;;;;;;1.90;1.20;;;15.60;99.90;;;;;;5074736;28;20044;-65
2022/06/26 04:56:38;;;;;;;5.78;1.63;;;15.70;99.90;;;;;;5091493;28;20044;-66
2022/06/26 04:59:06;;;;;;;3.50;1.67;;;15.70;99.90;;;;;;5092700;28;20079;-66
2022/06/26 05:01:33;;;;;;;1.58;1.17;;;15.70;99.90;;;;;;5092643;28;20562;-66
2022/06/26 05:04:00;;;;;;;1.77;1.10;;;15.60;99.90;;;;;;5091457;28;20503;-66
2022/06/26 05:06:27;;;;;;;3.58;1.30;;;15.60;99.90;;;;;;5092444;28;20123;-66
2022/06/26 05:08:55;;;;;;;4.28;1.38;;;15.60;99.90;;;;;;5090706;28;20135;-66
2022/06/26 05:11:23;;;;;;;1.13;0.93;;;15.60;99.90;;;;;;5074568;28;20068;-66
2022/06/26 05:13:52;;;;;;;2.88;1.05;;;15.60;99.90;;;;;;5093522;28;20035;-66
2022/06/26 05:16:20;;;;;;;2.03;1.10;;;15.50;99.90;;;;;;5095966;28;20459;-66
2022/06/26 05:18:47;;;;;;;1.83;0.95;;;15.50;99.90;;;;;;5079662;28;20587;-66
2022/06/26 05:21:14;;;;;;;1.45;0.85;;;15.40;99.90;;;;;;5096109;28;20075;-66
2022/06/26 05:23:45;;;;;;;2.20;0.98;;;15.30;99.90;;;;;;5096444;28;20503;-66
2022/06/26 05:26:17;;;;;;;1.48;0.80;;;15.40;99.90;;;;;;5111576;28;20840;-67
2022/06/26 05:28:45;;;;;;;3.40;0.95;;;15.40;99.90;;;;;;5096056;28;20040;-66
2022/06/26 05:31:13;;;;;;;1.77;0.88;;;15.50;99.90;;;;;;5095690;28;20189;-66
2022/06/26 05:33:40;;;;;;;3.20;1.05;;;15.50;99.90;;;;;;5096203;28;20040;-66
2022/06/26 05:36:10;;;;;;;0.98;0.98;;;15.40;99.90;;;;;;5096161;28;20528;-66
2022/06/26 05:38:39;;;;;;;1.33;0.90;;;15.30;99.90;;;;;;5096336;28;20447;-66
2022/06/26 05:41:09;;;;;;;2.95;1.95;;;15.30;99.90;;;;;;5095377;28;20051;-65
2022/06/26 05:43:37;;;;;;;1.85;0.82;;;15.30;99.90;;;;;;5060834;28;20044;-66
2022/06/26 05:46:04;;;;;;;1.40;0.90;;;15.30;99.90;;;;;;5078053;28;20510;-66
2022/06/26 05:48:34;;;;;;;2.15;1.05;;;15.40;99.90;;;;;;5095789;28;20044;-65
2022/06/26 05:51:02;;;;;;;1.55;1.00;;;15.40;99.90;;;;;;5095686;28;20052;-66
2022/06/26 05:53:33;;;;;;;1.02;0.90;;;15.40;99.90;;;;;;5095692;28;20032;-66
2022/06/26 05:56:01;;;;;;;2.80;0.95;;;15.30;99.90;;;;;;5078012;28;20044;-66
2022/06/26 05:58:29;;;;;;;1.95;1.08;;;15.30;99.90;;;;;;5061007;28;20070;-66
2022/06/26 06:00:56;;;;;;;2.20;0.77;;;15.20;99.90;;;;;;5077708;28;20048;-67
2022/06/26 06:03:24;;;;;;;1.52;0.80;;;15.20;99.90;;;;;;5095520;28;20044;-68
2022/06/26 06:05:51;;;;;;;5.43;1.30;;;15.10;99.90;;;;;;5095534;28;20131;-69
2022/06/26 06:08:18;;;;;;;3.35;0.93;;;15.40;99.90;;;;;;5095463;28;20622;-68
2022/06/26 06:10:45;;;;;;;30.75;2.33;;;15.40;99.90;;;;;;5095282;28;20079;-67
2022/06/26 06:13:16;;;;;;;10.15;1.70;;;15.40;99.90;;;;;;5095361;28;20051;-68
2022/06/26 06:15:43;;;;;;;3.60;1.83;;;15.40;99.90;;;;;;5095307;28;20047;-68
2022/06/26 06:18:12;;;;;;;6.35;1.67;;;15.40;99.90;;;;;;5095251;28;20039;-68
2022/06/26 06:20:40;;;;;;;1.17;1.02;;;15.40;99.90;;;;;;5095277;28;20056;-67
2022/06/26 06:23:07;;;;;;;1.58;0.70;;;15.40;99.90;;;;;;5095464;28;20035;-67
2022/06/26 06:25:34;;;;;;;1.40;1.02;;;15.30;99.90;;;;;;5095211;28;20518;-67
2022/06/26 06:28:01;;;;;;;1.73;0.98;;;15.40;99.90;;;;;;5090901;28;20032;-67
2022/06/26 06:30:30;;;;;;;0.88;0.80;;;15.40;99.90;;;;;;5092037;28;20040;-67
2022/06/26 06:32:57;;;;;;;6.25;0.90;;;15.30;99.90;;;;;;5076624;28;20040;-67
2022/06/26 06:35:24;;;;;;;1.55;0.70;;;15.30;99.90;;;;;;5094812;28;20118;-67
2022/06/26 06:37:51;;;;;;;0.68;0.50;;;15.40;99.90;;;;;;5094940;28;20170;-67
2022/06/26 06:40:18;;;;;;;2.50;0.60;;;15.30;99.90;;;;;;5076807;28;20044;-67
2022/06/26 06:42:47;;;;;;;1.27;1.02;;;15.30;99.90;;;;;;5094180;28;20059;-67
2022/06/26 06:45:15;;;;;;;1.85;1.27;;;15.40;99.90;;;;;;5094622;28;20082;-67
2022/06/26 06:47:41;;;;;;;1.63;1.08;;;15.20;99.90;;;;;;5076458;28;20150;-67
2022/06/26 06:50:09;;;;;;;5.00;1.40;;;15.30;99.90;;;;;;5094686;28;20526;-67
2022/06/26 06:52:36;;;;;;;5.38;1.55;;;15.30;99.90;;;;;;5076773;28;20044;-67
2022/06/26 06:55:12;;;;;;;1.63;1.10;;;15.40;99.90;;;;;;5094454;28;20036;-67
2022/06/26 06:57:41;;;;;;;1.65;1.13;;;15.30;99.90;;;;;;5094586;28;20112;-67
2022/06/26 07:00:09;;;;;;;3.33;1.00;;;15.40;99.90;;;;;;5094487;28;20632;-67
2022/06/26 07:02:40;;;;;;;0.68;0.60;;;15.40;99.90;;;;;;5094497;28;20040;-67
2022/06/26 07:05:08;;;;;;;0.90;0.80;;;15.20;99.90;;;;;;5076645;28;20043;-67
2022/06/26 07:07:37;;;;;;;0.95;0.88;;;15.30;99.90;;;;;;5094525;28;20043;-67
2022/06/26 07:10:04;;;;;;;1.65;0.60;;;15.40;99.90;;;;;;5094274;28;20035;-67
2022/06/26 07:12:32;;;;;;;0.50;0.40;;;15.40;99.90;;;;;;5094347;28;20043;-67
2022/06/26 07:15:04;;;;;;;0.98;0.82;;;15.40;99.90;;;;;;5076266;28;20523;-68
2022/06/26 07:17:32;;;;;;;1.23;0.63;;;15.50;99.90;;;;;;5094307;28;20044;-67
2022/06/26 07:19:59;;;;;;;1.20;1.10;;;15.40;99.90;;;;;;5075770;28;20028;-67
2022/06/26 07:22:27;;;;;;;1.60;0.90;;;15.40;99.90;;;;;;5075521;28;20052;-67
2022/06/26 07:24:54;;;;;;;0.90;0.80;;;15.60;99.90;;;;;;5076126;28;20503;-67
2022/06/26 07:27:22;;;;;;;1.05;0.88;;;15.60;99.90;;;;;;5094172;28;20047;-67
2022/06/26 07:29:49;;;;;;;1.50;0.77;;;15.70;99.90;;;;;;5094095;28;20036;-67
2022/06/26 07:32:16;;;;;;;1.63;0.80;;;15.60;99.90;;;;;;5075770;28;20570;-67
2022/06/26 07:34:43;;;;;;;0.85;0.70;;;15.70;99.90;;;;;;5075431;28;20032;-67
2022/06/26 07:37:10;;;;;;;0.75;0.63;;;15.60;99.90;;;;;;5092985;28;20522;-68
2022/06/26 07:39:37;;;;;;;1.38;0.68;;;15.60;99.90;;;;;;5092761;28;20043;-68
2022/06/26 07:42:04;;;;;;;1.15;0.85;;;15.80;99.90;;;;;;5093618;28;20047;-67
2022/06/26 07:44:31;;;;;;;0.60;0.50;;;15.80;99.90;;;;;;5093710;28;20048;-67
2022/06/26 07:46:59;;;;;;;1.50;0.77;;;16.00;99.90;;;;;;5093875;28;20109;-68
2022/06/26 07:49:30;;;;;;;0.65;0.55;;;16.00;99.90;;;;;;5093711;28;20434;-68
2022/06/26 07:51:57;;;;;;;1.25;0.60;;;16.00;99.90;;;;;;5075082;28;20526;-68
2022/06/26 07:54:26;;;;;;;1.98;0.73;;;15.90;99.90;;;;;;5075383;28;20137;-68
2022/06/26 07:56:52;;;;;;;2.97;0.85;;;15.90;99.90;;;;;;5093521;28;20040;-68
2022/06/26 07:59:23;;;;;;;4.72;0.82;;;16.10;99.90;;;;;;5093494;28;20042;-68
2022/06/26 08:01:54;;;;;;;1.15;0.80;;;16.10;99.90;;;;;;5092660;28;20040;-67
2022/06/26 08:04:21;;;;;;;0.90;0.75;;;16.00;99.90;;;;;;5093369;28;20503;-67
2022/06/26 08:06:48;;;;;;;5.78;4.03;;;16.00;99.90;;;;;;5093062;28;20498;-67
2022/06/26 08:09:15;;;;;;;2.03;1.52;;;16.20;99.90;;;;;;5092499;28;20048;-68
2022/06/26 08:11:41;;;;;;;0.20;0.20;;;16.40;99.90;;;;;;5088129;28;20495;-68
2022/06/26 08:14:07;;;;;;;0.35;0.32;;;16.30;99.90;;;;;;5089499;28;20127;-68
2022/06/26 08:16:33;;;;;;;0.63;0.40;;;16.30;99.90;;;;;;5074119;28;20036;-67
2022/06/26 08:18:59;;;;;;;2.00;0.63;;;16.30;99.90;;;;;;5090882;28;20495;-68
2022/06/26 08:24:12;;;;;;;22.52;1.40;;;16.10;99.90;;;;;;5091121;28;20043;-68
2022/06/26 08:26:38;;;;;;;2.65;0.73;;;15.90;99.90;;;;;;5090692;28;20040;-67
2022/06/26 08:29:04;;;;;;;1.17;0.80;;;15.80;99.90;;;;;;5086956;28;20490;-68
2022/06/26 08:31:29;;;;;;;1.52;0.75;;;15.80;99.90;;;;;;5071768;28;20048;-67
2022/06/26 08:33:58;;;;;;;2.42;0.20;;;15.80;99.90;;;;;;5071393;28;20044;-67
2022/06/26 08:36:24;;;;;;;0.80;0.50;;;15.90;99.90;;;;;;5070481;28;20124;-67
2022/06/26 08:38:50;;;;;;;2.40;0.70;;;16.00;99.90;;;;;;5070737;28;20032;-67
2022/06/26 08:41:17;;;;;;;1.98;0.77;;;15.90;99.90;;;;;;5070665;28;20131;-66
2022/06/26 08:43:44;;;;;;;1.85;0.98;;;16.00;99.90;;;;;;5070519;28;20036;-67
2022/06/26 08:46:11;;;;;;;2.63;0.65;;;16.10;99.90;;;;;;5068939;28;20040;-67
2022/06/26 08:48:47;;;;;;;1.00;0.60;;;16.00;99.90;;;;;;5069111;28;20131;-67
2022/06/26 08:51:13;;;;;;;3.00;0.70;;;16.00;99.90;;;;;;5073746;28;20508;-67
2022/06/26 08:53:41;;;;;;;1.52;0.70;;;16.10;99.90;;;;;;5077741;28;20051;-67
2022/06/26 08:56:07;;;;;;;7.35;0.70;;;16.00;99.90;;;;;;5105443;28;20373;-67
2022/06/26 08:58:34;;;;;;;0.90;0.50;;;15.90;99.90;;;;;;5099298;28;20038;-67
2022/06/26 09:01:00;;;;;;;0.80;0.50;;;15.80;99.90;;;;;;5116637;28;20118;-67
2022/06/26 09:03:25;;;;;;;1.27;0.57;;;15.90;99.90;;;;;;5096988;28;20132;-67
2022/06/26 09:05:51;;;;;;;1.48;0.60;;;15.80;99.90;;;;;;5094880;28;20042;-67
2022/06/26 09:08:21;;;;;;;0.73;0.55;;;15.80;99.90;;;;;;5095379;28;20046;-67
2022/06/26 09:10:50;;;;;;;0.40;0.30;;;15.90;99.90;;;;;;5095217;28;20051;-67
2022/06/26 09:13:16;;;;;;;2.45;0.30;;;16.00;99.90;;;;;;5094715;28;20179;-67
2022/06/26 09:15:43;;;;;;;0.20;0.10;;;16.00;99.90;;;;;;5094483;28;20472;-67
2022/06/26 09:18:11;;;;;;;0.10;0.10;;;15.80;99.90;;;;;;5094639;28;20043;-67
2022/06/26 09:20:56;;;;;;;0.28;0.20;;;15.90;99.90;;;;;;5094299;28;20421;-67
2022/06/26 09:23:22;;;;;;;1.50;0.30;;;16.00;99.90;;;;;;5094057;28;20032;-67
2022/06/26 09:25:48;;;;;;;0.20;0.15;;;16.10;99.90;;;;;;5094620;28;20042;-67
2022/06/26 09:28:14;;;;;;;0.77;0.20;;;16.20;99.90;;;;;;5095633;28;20127;-67
2022/06/26 09:30:58;;;;;;;1.42;0.20;;;16.10;99.90;;;;;;5095651;28;20130;-67
2022/06/26 09:33:27;;;;;;;0.32;0.10;;;16.20;99.90;;;;;;5094141;28;20043;-67
2022/06/26 09:35:54;;;;;;;0.73;0.10;;;16.10;99.90;;;;;;5096572;28;20044;-67
2022/06/26 09:38:25;;;;;;;0.63;0.20;;;16.10;99.90;;;;;;5102890;28;20395;-67
2022/06/26 09:41:03;;;;;;;0.28;0.15;;;16.20;99.90;;;;;;5095568;28;20128;-67
2022/06/26 09:43:31;;;;;;;0.63;0.25;;;16.50;99.90;;;;;;5092404;28;20075;-67
2022/06/26 09:46:01;;;;;;;0.85;0.10;;;16.40;99.90;;;;;;5085467;28;20044;-67
2022/06/26 09:48:30;;;;;;;0.20;0.10;;;16.30;99.90;;;;;;5086343;28;20127;-67
2022/06/26 09:51:14;;;;;;;0.65;0.20;;;16.40;99.90;;;;;;5075155;28;20146;-67
2022/06/26 09:53:44;;;;;;;0.63;0.10;;;16.60;99.90;;;;;;5074912;28;20746;-67
2022/06/26 09:56:11;;;;;;;0.13;0.10;;;16.80;99.90;;;;;;5091929;28;20058;-67
2022/06/26 09:58:43;;;;;;;0.10;0.10;;;16.70;99.90;;;;;;5094398;28;20395;-67
2022/06/26 10:06:52;;;;;;;0.35;0.17;;;17.00;99.90;;;;;;5096500;28;20139;-67
2022/06/26 10:09:20;;;;;;;0.28;0.20;;;17.20;99.90;;;;;;5091774;28;20506;-67
2022/06/26 10:11:52;;;;;;;1.35;0.20;;;17.00;99.90;;;;;;5091163;28;20071;-67
2022/06/26 10:14:29;;;;;;;0.13;0.13;;;17.30;99.90;;;;;;5072475;28;20135;-67
2022/06/26 10:17:33;;;;;;;1.00;0.20;;;17.00;99.90;;;;;;5088443;28;20454;-67
2022/06/26 10:20:12;;;;;;;0.40;0.20;;;17.10;99.90;;;;;;5090085;28;20486;-67
2022/06/26 10:22:45;;;;;;;0.40;0.30;;;16.90;99.90;;;;;;5090284;28;20123;-67
2022/06/26 10:25:27;;;;;;;0.22;0.10;;;16.90;99.90;;;;;;5090620;28;20097;-67
2022/06/26 10:27:56;;;;;;;0.13;0.10;;;16.60;99.90;;;;;;5071170;28;20039;-67
2022/06/26 10:30:35;;;;;;;0.30;0.17;;;16.60;99.90;;;;;;5052958;28;20036;-67
2022/06/26 10:33:10;;;;;;;0.35;0.10;;;16.40;99.90;;;;;;5071335;28;20918;-67
2022/06/26 10:35:47;;;;;;;0.17;0.10;;;16.40;99.90;;;;;;5070080;28;20459;-67
2022/06/26 10:38:29;;;;;;;0.00;0.00;;;16.50;99.90;;;;;;5093365;28;20383;-67
2022/06/26 10:44:18;;;;;;;0.77;0.30;;;16.20;99.90;;;;;;5077459;28;20097;-67
2022/06/26 10:46:50;;;;;;;0.10;0.10;;;16.10;99.90;;;;;;5109105;28;20586;-67
2022/06/26 10:49:18;;;;;;;0.90;0.30;;;16.20;99.90;;;;;;5094028;28;20126;-67
2022/06/26 10:51:50;;;;;;;0.32;0.10;;;16.30;99.90;;;;;;5075570;28;20059;-68
2022/06/26 10:54:29;;;;;;;0.57;0.30;;;16.60;99.90;;;;;;5076963;28;20120;-67
2022/06/26 10:57:18;;;;;;;1.17;0.95;;;16.40;99.90;;;;;;5083294;28;20048;-68
2022/06/26 10:59:48;;;;;;;21.42;11.85;;;16.40;99.90;;;;;;5073538;28;20028;-68
2022/06/26 11:02:20;;;;;;;13.73;6.28;;;16.40;99.90;;;;;;5108306;28;20483;-67
2022/06/26 11:04:52;;;;;;;4.05;2.67;;;16.50;99.90;;;;;;5090487;28;20054;-68
2022/06/26 11:07:19;;;;;;;3.60;2.38;;;16.50;99.90;;;;;;5101574;28;20070;-68
2022/06/26 11:09:49;;;;;;;1.92;0.50;;;16.70;99.90;;;;;;5110576;27;20544;-68
2022/06/26 11:12:41;;;;;;;2.35;1.08;;;16.70;99.90;;;;;;5073647;28;20075;-68
2022/06/26 11:15:20;;;;;;;1.30;0.60;;;16.60;99.90;;;;;;5074032;28;20039;-68
2022/06/26 11:18:03;;;;;;;2.72;0.40;;;16.70;99.90;;;;;;5106761;28;20066;-67
2022/06/26 11:20:51;;;;;;;1.58;0.88;;;16.90;99.90;;;;;;5057917;28;20406;-68
2022/06/26 11:23:35;;;;;;;1.02;0.77;;;17.00;99.90;;;;;;5093390;28;20096;-68
2022/06/26 11:26:11;;;;;;;0.55;0.40;;;16.70;99.90;;;;;;5091993;28;20404;-68
2022/06/26 11:28:45;;;;;;;0.30;0.30;;;16.80;99.90;;;;;;5091826;28;20047;-68
2022/06/26 11:31:25;;;;;;;0.85;0.60;;;16.80;99.90;;;;;;5091121;28;20912;-68
2022/06/26 11:34:15;;;;;;;0.38;0.30;;;16.90;99.90;;;;;;5091442;28;20044;-67
2022/06/26 11:37:09;;;;;;;1.67;0.40;;;17.00;99.90;;;;;;5086944;28;20125;-68
2022/06/26 11:39:42;;;;;;;0.30;0.30;;;17.10;99.90;;;;;;5089793;28;20067;-68
2022/06/26 11:42:22;;;;;;;0.73;0.35;;;17.00;99.90;;;;;;5099936;28;20047;-69
2022/06/26 11:44:59;;;;;;;0.63;0.45;;;17.20;99.90;;;;;;5113035;28;20043;-68
2022/06/26 11:47:30;;;;;;;2.05;0.57;;;17.30;99.90;;;;;;5113537;28;20184;-67
2022/06/26 11:49:57;;;;;;;0.43;0.43;;;17.30;99.90;;;;;;5095666;28;20138;-68
2022/06/26 11:52:29;;;;;;;0.73;0.30;;;17.50;99.90;;;;;;5091183;28;20043;-68
2022/06/26 11:55:03;;;;;;;0.82;0.50;;;17.40;99.90;;;;;;5091528;28;20599;-68
2022/06/26 11:57:31;;;;;;;1.15;0.60;;;17.50;99.90;;;;;;5091442;28;20047;-68
2022/06/26 12:00:05;;;;;;;0.77;0.50;;;17.40;99.90;;;;;;5090131;28;20044;-67
2022/06/26 12:02:41;;;;;;;1.48;0.40;;;17.40;99.90;;;;;;5091175;28;20708;-68
2022/06/26 12:05:12;;;;;;;2.25;0.40;;;17.30;99.90;;;;;;5090491;28;20407;-68
2022/06/26 12:07:50;;;;;;;0.87;0.50;;;17.20;99.90;;;;;;5075876;28;20036;-68
2022/06/26 12:10:33;;;;;;;1.80;0.55;;;17.30;99.90;;;;;;5077315;28;20649;-67
2022/06/26 12:13:03;;;;;;;0.63;0.47;;;17.40;99.90;;;;;;5099927;28;20048;-68
2022/06/26 12:15:31;;;;;;;;;;;17.40;99.90;;;;;;5040313;28;20048;-69
2022/06/26 12:18:04;;;;;;;2.22;0.60;;;17.40;99.90;;;;;;5092275;28;19990;-68
2022/06/26 12:20:44;;;;;;;0.50;0.40;;;17.40;99.90;;;;;;5095454;28;20059;-68
2022/06/26 12:23:17;;;;;;;4.30;0.77;;;17.40;99.90;;;;;;5072670;28;20052;-68
2022/06/26 12:25:47;;;;;;;1.20;0.60;;;17.50;99.90;;;;;;5090997;28;20047;-68
2022/06/26 12:28:22;;;;;;;1.05;0.60;;;17.70;99.90;;;;;;5091430;28;20043;-68
2022/06/26 12:30:52;;;;;;;1.60;0.98;;;18.00;99.90;;;;;;5073502;28;20051;-68
2022/06/26 12:33:21;;;;;;;2.97;0.52;;;17.90;99.90;;;;;;5108255;28;20048;-68
2022/06/26 12:35:52;;;;;;;2.38;0.88;;;17.60;99.90;;;;;;5075842;28;20050;-68
2022/06/26 12:38:27;;;;;;;;;;;17.60;99.90;;;;;;5093779;28;20410;-68
2022/06/26 12:41:00;;;;;;;0.60;0.50;;;17.60;99.90;;;;;;5093597;28;19923;-68
2022/06/26 12:43:27;;;;;;;2.60;0.70;;;17.80;99.90;;;;;;5074988;28;20395;-69
2022/06/26 12:45:54;;;;;;;4.80;0.90;;;17.90;99.90;;;;;;5091331;28;20170;-69
2022/06/26 12:48:21;;;;;;;0.73;0.50;;;18.10;99.90;;;;;;5093434;28;20071;-69
2022/06/26 12:50:48;;;;;;;1.45;0.50;;;18.10;99.90;;;;;;5093449;28;20047;-69
2022/06/26 12:53:15;;;;;;;0.95;0.73;;;18.20;99.90;;;;;;5091731;28;20054;-69
2022/06/26 12:55:42;;;;;;;2.05;0.70;;;18.00;99.90;;;;;;5090294;28;20040;-69
2022/06/26 12:58:09;;;;;;;0.80;0.63;;;18.00;99.90;;;;;;5089849;28;20507;-69
2022/06/26 13:00:36;;;;;;;1.55;0.60;;;17.80;99.90;;;;;;5090500;28;20390;-68
2022/06/26 13:03:05;;;;;;;0.70;0.50;;;17.80;99.90;;;;;;5091585;28;20043;-68
2022/06/26 13:05:38;;;;;;;0.93;0.65;;;17.80;99.90;;;;;;5092735;28;20127;-69
2022/06/26 13:08:06;;;;;;;0.73;0.65;;;17.80;99.90;;;;;;5093805;28;20051;-69
2022/06/26 13:10:35;;;;;;;0.93;0.57;;;17.70;99.90;;;;;;5099366;28;20487;-69
2022/06/26 13:13:01;;;;;;;1.00;0.70;;;17.50;99.90;;;;;;5072994;28;20110;-69